Emmet, South Dakota
Current Conditions -  °F | °C
As of 8:55 AM on Tuesday 21 Oct 2014 (Local Time) from KYKN Reporting Station
Clear Clear  
Wind Chill: 39°   Ceiling: Unl
Heat Index: 43°   Visibility: 4mi
Dew Point: 39°   Wind: 6mph
Humidity: 87%   Direction: 90°E
Pressure: 30.06"   Gusts: NA
Location:  43.1048°N, 96.7944°W
Report Text: KYKN 211355Z AUTO 09005KT 4SM CLR 06/04 A3006 RMK AO1
Loading
Personal Weather Stations






























Interactive Weather Map
Tropical Storm Tracking
New forecast layout! Learn more

10-Day Weather Forecast

Advertisements
Track Severe Weather on mobile